TFM - Tactical Decision Aid
ID: Runway Winds: CIG/VIS Threshold:

KJAN - Jackson/Evers Intl, MS, US

Updated at: 1431 UTC 10 Jul 2020
Latest TAF at: 1120 UTC 10 Jul 2020

TAF Board

Time1354Z 10/15Z 10/16Z 10/17Z 10/18Z 10/19Z 10/20Z 10/21Z 10/22Z 10/23Z 11/00Z 11/01Z 11/02Z 11/03Z>>
Type OBS PRVL PRVL PRVL PRVL PRVL PRVL PRVL PRVL PRVL PRVL PRVL PRVL PRVL
VIS 10 >6 >6 >6 >6 >6 >6 >6 >6 >6 >6 >6 >6 >6
CIG 41 45 45 45 40 40 40 40 40 -- -- -- -- --
Cover OVC BKN BKN BKN BKN BKN BKN BKN BKN SCT SCT SCT SCT SCT
FltCat VFR VFR VFR VFR VFR VFR VFR VFR VFR VFR VFR VFR VFR VFR
WX -- -- -- -- VCTS VCTS VCTS VCTS VCTS -- -- -- -- --
WDir 260 240 240 240 300 300 300 300 300 310 310 310 310 310
WSpd 6 6 6 6 8 8 8 8 8 3 3 3 3 3
WGst -- -- -- -- -- -- -- -- -- -- -- -- -- --

TDA Impact Legend

  None Marginal Slight Moderate High
Visibility (sm) >5 3≤X≤5 2≤X<3 0.5≤X<2 <0.5
Ceiling (100 ft) >30 10≤X≤30 6≤X<10 2≤X<6 <2
Wind Speed (kt) <15 15≤X<25 25≤X<30 ≥30
Wind Gust (kt) <15 15≤X<25 25≤X<35 ≥35
Weather No Wx Reported VCTS -TS,-FZRA TS,FZRA +TS,+FZRA
TAF
KJAN 101120Z 1012/1112 24006KT P6SM BKN045
  FM101800 30008KT P6SM VCTS BKN040CB
  FM102300 31003KT P6SM SCT050


METAR
KJAN 101354Z 26006KT 10SM SCT014 OVC041 28/24 A3002 RMK AO2 SLP162 T02830244
KJAN 101254Z 25006KT 9SM FEW039 BKN047 27/24 A3001 RMK AO2 SLP158 T02720244
KJAN 101154Z 24003KT 8SM FEW012 SCT042 BKN250 27/24 A3000 RMK AO2 SLP154 T02670244 10267 20261 51013

Radar Display
Forecast Discussion